sensor_id;sensor_type;location;lat;lon;timestamp;pressure;altitude;pressure_sealevel;temperature;humidity
68301;BME280;55146;47.468;18.806;2023-03-19T00:01:40;100383.72;;;6.89;58.63
68301;BME280;55146;47.468;18.806;2023-03-19T00:04:06;100392.63;;;6.96;58.49
68301;BME280;55146;47.468;18.806;2023-03-19T00:06:32;100394.75;;;6.94;58.61
68301;BME280;55146;47.468;18.806;2023-03-19T00:08:57;100390.44;;;6.98;58.50
68301;BME280;55146;47.468;18.806;2023-03-19T00:11:23;100382.00;;;7.00;58.50
68301;BME280;55146;47.468;18.806;2023-03-19T00:13:48;100387.34;;;6.78;58.99
68301;BME280;55146;47.468;18.806;2023-03-19T00:16:14;100380.06;;;6.83;58.91
68301;BME280;55146;47.468;18.806;2023-03-19T00:18:39;100381.78;;;6.61;59.48
68301;BME280;55146;47.468;18.806;2023-03-19T00:21:04;100368.63;;;6.46;59.95
68301;BME280;55146;47.468;18.806;2023-03-19T00:23:30;100373.94;;;6.65;59.47
68301;BME280;55146;47.468;18.806;2023-03-19T00:25:56;100369.34;;;6.54;59.95
68301;BME280;55146;47.468;18.806;2023-03-19T00:28:21;100369.56;;;6.52;59.92
68301;BME280;55146;47.468;18.806;2023-03-19T00:30:46;100370.75;;;6.56;59.82
68301;BME280;55146;47.468;18.806;2023-03-19T00:33:12;100375.72;;;6.59;59.69
68301;BME280;55146;47.468;18.806;2023-03-19T00:35:39;100362.56;;;6.44;60.06
68301;BME280;55146;47.468;18.806;2023-03-19T00:38:04;100364.50;;;6.32;60.54
68301;BME280;55146;47.468;18.806;2023-03-19T00:40:30;100355.66;;;6.42;60.33
68301;BME280;55146;47.468;18.806;2023-03-19T00:42:56;100356.28;;;6.32;60.56
68301;BME280;55146;47.468;18.806;2023-03-19T00:45:21;100343.81;;;6.36;60.56
68301;BME280;55146;47.468;18.806;2023-03-19T00:47:47;100345.94;;;6.46;60.27
68301;BME280;55146;47.468;18.806;2023-03-19T00:50:12;100349.97;;;6.43;60.25
68301;BME280;55146;47.468;18.806;2023-03-19T00:52:38;100353.91;;;6.47;60.29
68301;BME280;55146;47.468;18.806;2023-03-19T00:55:03;100353.19;;;6.52;60.18
68301;BME280;55146;47.468;18.806;2023-03-19T00:57:29;100354.59;;;6.43;60.33
68301;BME280;55146;47.468;18.806;2023-03-19T00:59:54;100351.63;;;6.44;60.35
68301;BME280;55146;47.468;18.806;2023-03-19T01:02:20;100355.44;;;6.43;60.56
68301;BME280;55146;47.468;18.806;2023-03-19T01:04:47;100358.28;;;6.48;60.37
68301;BME280;55146;47.468;18.806;2023-03-19T01:07:13;100365.44;;;6.38;60.53
68301;BME280;55146;47.468;18.806;2023-03-19T01:09:38;100368.25;;;6.43;60.38
68301;BME280;55146;47.468;18.806;2023-03-19T01:12:05;100369.00;;;6.38;60.43
68301;BME280;55146;47.468;18.806;2023-03-19T01:14:31;100371.25;;;6.30;60.57
68301;BME280;55146;47.468;18.806;2023-03-19T01:16:57;100368.28;;;6.31;60.68
68301;BME280;55146;47.468;18.806;2023-03-19T01:19:22;100364.62;;;6.26;60.73
68301;BME280;55146;47.468;18.806;2023-03-19T01:21:48;100368.31;;;6.20;60.85
68301;BME280;55146;47.468;18.806;2023-03-19T01:24:15;100365.00;;;5.94;61.68
68301;BME280;55146;47.468;18.806;2023-03-19T01:26:41;100364.16;;;5.94;61.82
68301;BME280;55146;47.468;18.806;2023-03-19T01:29:07;100357.50;;;6.01;61.34
68301;BME280;55146;47.468;18.806;2023-03-19T01:31:32;100356.09;;;5.99;61.46
68301;BME280;55146;47.468;18.806;2023-03-19T01:33:58;100359.53;;;6.06;61.26
68301;BME280;55146;47.468;18.806;2023-03-19T01:36:24;100361.09;;;6.02;61.44
68301;BME280;55146;47.468;18.806;2023-03-19T01:38:50;100357.38;;;5.85;61.82
68301;BME280;55146;47.468;18.806;2023-03-19T01:41:15;100360.56;;;5.82;62.17
68301;BME280;55146;47.468;18.806;2023-03-19T01:43:41;100356.81;;;5.94;61.70
68301;BME280;55146;47.468;18.806;2023-03-19T01:46:15;100359.91;;;5.98;61.61
68301;BME280;55146;47.468;18.806;2023-03-19T01:48:54;100364.03;;;5.89;61.97
68301;BME280;55146;47.468;18.806;2023-03-19T01:51:26;100364.00;;;5.77;62.23
68301;BME280;55146;47.468;18.806;2023-03-19T01:53:55;100355.09;;;5.82;62.10
68301;BME280;55146;47.468;18.806;2023-03-19T01:56:33;100356.88;;;5.64;62.78
68301;BME280;55146;47.468;18.806;2023-03-19T01:59:09;100354.28;;;5.69;62.63
68301;BME280;55146;47.468;18.806;2023-03-19T02:01:42;100353.09;;;5.65;62.62
68301;BME280;55146;47.468;18.806;2023-03-19T02:04:10;100352.25;;;5.65;62.62
68301;BME280;55146;47.468;18.806;2023-03-19T02:06:36;100340.84;;;5.56;62.94
68301;BME280;55146;47.468;18.806;2023-03-19T02:09:02;100344.50;;;5.50;63.17
68301;BME280;55146;47.468;18.806;2023-03-19T02:11:28;100349.25;;;5.43;63.35
68301;BME280;55146;47.468;18.806;2023-03-19T02:13:53;100339.44;;;5.42;63.51
68301;BME280;55146;47.468;18.806;2023-03-19T02:16:19;100336.09;;;5.52;63.13
68301;BME280;55146;47.468;18.806;2023-03-19T02:18:44;100336.69;;;5.42;63.47
68301;BME280;55146;47.468;18.806;2023-03-19T02:21:19;100324.69;;;5.43;63.24
68301;BME280;55146;47.468;18.806;2023-03-19T02:24:08;100324.69;;;5.43;63.30
68301;BME280;55146;47.468;18.806;2023-03-19T02:26:35;100326.13;;;5.34;63.42
68301;BME280;55146;47.468;18.806;2023-03-19T02:29:01;100336.53;;;5.37;63.55
68301;BME280;55146;47.468;18.806;2023-03-19T02:31:28;100333.69;;;5.32;63.79
68301;BME280;55146;47.468;18.806;2023-03-19T02:36:23;100330.41;;;5.30;63.75
68301;BME280;55146;47.468;18.806;2023-03-19T02:38:48;100330.84;;;5.27;63.64
68301;BME280;55146;47.468;18.806;2023-03-19T02:41:15;100332.88;;;5.43;62.60
68301;BME280;55146;47.468;18.806;2023-03-19T02:43:41;100330.03;;;5.50;62.73
68301;BME280;55146;47.468;18.806;2023-03-19T02:46:10;100329.09;;;5.56;62.68
68301;BME280;55146;47.468;18.806;2023-03-19T02:48:36;100337.75;;;5.41;63.08
68301;BME280;55146;47.468;18.806;2023-03-19T02:51:03;100338.72;;;5.47;63.05
68301;BME280;55146;47.468;18.806;2023-03-19T02:53:28;100326.97;;;5.46;62.85
68301;BME280;55146;47.468;18.806;2023-03-19T02:55:54;100328.84;;;5.34;63.34
68301;BME280;55146;47.468;18.806;2023-03-19T02:58:19;100337.47;;;5.31;63.56
68301;BME280;55146;47.468;18.806;2023-03-19T03:00:45;100339.03;;;5.27;63.69
68301;BME280;55146;47.468;18.806;2023-03-19T03:03:11;100349.91;;;5.15;64.08
68301;BME280;55146;47.468;18.806;2023-03-19T03:05:36;100340.78;;;5.21;64.16
68301;BME280;55146;47.468;18.806;2023-03-19T03:08:02;100341.84;;;5.20;64.10
68301;BME280;55146;47.468;18.806;2023-03-19T03:10:29;100336.06;;;5.17;64.10
68301;BME280;55146;47.468;18.806;2023-03-19T03:12:54;100343.53;;;5.21;64.11
68301;BME280;55146;47.468;18.806;2023-03-19T03:15:20;100341.97;;;5.25;63.91
68301;BME280;55146;47.468;18.806;2023-03-19T03:17:46;100345.19;;;5.22;63.70
68301;BME280;55146;47.468;18.806;2023-03-19T03:20:13;100339.00;;;5.15;63.92
68301;BME280;55146;47.468;18.806;2023-03-19T03:22:40;100353.69;;;5.14;63.91
68301;BME280;55146;47.468;18.806;2023-03-19T03:25:05;100342.19;;;5.12;64.13
68301;BME280;55146;47.468;18.806;2023-03-19T03:27:31;100345.25;;;5.04;64.30
68301;BME280;55146;47.468;18.806;2023-03-19T03:29:57;100339.56;;;5.06;64.45
68301;BME280;55146;47.468;18.806;2023-03-19T03:32:22;100344.38;;;4.92;64.81
68301;BME280;55146;47.468;18.806;2023-03-19T03:34:48;100348.28;;;4.96;64.81
68301;BME280;55146;47.468;18.806;2023-03-19T03:37:14;100338.97;;;5.04;64.54
68301;BME280;55146;47.468;18.806;2023-03-19T03:39:40;100345.53;;;4.84;65.29
68301;BME280;55146;47.468;18.806;2023-03-19T03:42:06;100342.34;;;4.87;65.21
68301;BME280;55146;47.468;18.806;2023-03-19T03:44:32;100340.59;;;4.93;65.31
68301;BME280;55146;47.468;18.806;2023-03-19T03:46:57;100338.72;;;4.94;65.22
68301;BME280;55146;47.468;18.806;2023-03-19T03:49:22;100342.19;;;4.82;65.43
68301;BME280;55146;47.468;18.806;2023-03-19T03:51:48;100344.44;;;4.74;65.70
68301;BME280;55146;47.468;18.806;2023-03-19T03:54:13;100357.22;;;4.73;65.77
68301;BME280;55146;47.468;18.806;2023-03-19T03:56:38;100353.66;;;4.73;65.81
68301;BME280;55146;47.468;18.806;2023-03-19T03:59:04;100350.72;;;4.74;66.01
68301;BME280;55146;47.468;18.806;2023-03-19T04:01:29;100358.13;;;4.67;66.17
68301;BME280;55146;47.468;18.806;2023-03-19T04:03:55;100348.03;;;4.56;66.47
68301;BME280;55146;47.468;18.806;2023-03-19T04:06:22;100345.22;;;4.63;66.18
68301;BME280;55146;47.468;18.806;2023-03-19T04:08:48;100338.84;;;4.69;66.09
68301;BME280;55146;47.468;18.806;2023-03-19T04:11:13;100329.03;;;4.50;66.58
68301;BME280;55146;47.468;18.806;2023-03-19T04:13:39;100318.63;;;4.58;66.42
68301;BME280;55146;47.468;18.806;2023-03-19T04:16:06;100324.78;;;4.54;66.47
68301;BME280;55146;47.468;18.806;2023-03-19T04:18:33;100321.75;;;4.62;66.23
68301;BME280;55146;47.468;18.806;2023-03-19T04:20:58;100315.69;;;4.60;66.46
68301;BME280;55146;47.468;18.806;2023-03-19T04:23:24;100324.25;;;4.45;66.82
68301;BME280;55146;47.468;18.806;2023-03-19T04:25:50;100323.34;;;4.33;67.28
68301;BME280;55146;47.468;18.806;2023-03-19T04:28:15;100326.41;;;4.25;67.33
68301;BME280;55146;47.468;18.806;2023-03-19T04:30:41;100328.28;;;4.42;67.01
68301;BME280;55146;47.468;18.806;2023-03-19T04:33:08;100338.19;;;4.55;66.44
68301;BME280;55146;47.468;18.806;2023-03-19T04:35:35;100341.81;;;4.49;66.51
68301;BME280;55146;47.468;18.806;2023-03-19T04:38:01;100340.66;;;4.38;66.91
68301;BME280;55146;47.468;18.806;2023-03-19T04:40:26;100347.66;;;4.16;67.56
68301;BME280;55146;47.468;18.806;2023-03-19T04:42:52;100345.91;;;4.22;67.43
68301;BME280;55146;47.468;18.806;2023-03-19T04:45:17;100342.50;;;4.26;67.38
68301;BME280;55146;47.468;18.806;2023-03-19T04:47:43;100345.97;;;4.33;67.20
68301;BME280;55146;47.468;18.806;2023-03-19T04:50:09;100341.59;;;4.32;67.07
68301;BME280;55146;47.468;18.806;2023-03-19T04:52:35;100348.78;;;4.27;66.94
68301;BME280;55146;47.468;18.806;2023-03-19T04:55:02;100349.75;;;4.32;66.86
68301;BME280;55146;47.468;18.806;2023-03-19T04:57:28;100348.03;;;4.38;66.78
68301;BME280;55146;47.468;18.806;2023-03-19T04:59:53;100349.16;;;4.48;66.31
68301;BME280;55146;47.468;18.806;2023-03-19T05:02:19;100345.75;;;4.53;66.18
68301;BME280;55146;47.468;18.806;2023-03-19T05:04:45;100352.94;;;4.47;66.40
68301;BME280;55146;47.468;18.806;2023-03-19T05:07:10;100349.59;;;4.45;66.35
68301;BME280;55146;47.468;18.806;2023-03-19T05:09:35;100349.72;;;4.51;66.17
68301;BME280;55146;47.468;18.806;2023-03-19T05:12:01;100357.81;;;4.57;65.84
68301;BME280;55146;47.468;18.806;2023-03-19T05:14:26;100369.72;;;4.44;66.35
68301;BME280;55146;47.468;18.806;2023-03-19T05:16:52;100367.00;;;4.44;66.31
68301;BME280;55146;47.468;18.806;2023-03-19T05:19:17;100365.94;;;4.45;66.39
68301;BME280;55146;47.468;18.806;2023-03-19T05:21:43;100372.75;;;4.55;66.34
68301;BME280;55146;47.468;18.806;2023-03-19T05:24:08;100363.28;;;4.57;65.93
68301;BME280;55146;47.468;18.806;2023-03-19T05:26:33;100364.88;;;4.46;66.22
68301;BME280;55146;47.468;18.806;2023-03-19T05:28:59;100371.44;;;4.57;65.78
68301;BME280;55146;47.468;18.806;2023-03-19T05:31:24;100363.19;;;4.64;65.69
68301;BME280;55146;47.468;18.806;2023-03-19T05:33:49;100361.47;;;4.51;65.91
68301;BME280;55146;47.468;18.806;2023-03-19T05:36:15;100370.81;;;4.43;66.17
68301;BME280;55146;47.468;18.806;2023-03-19T05:38:41;100375.09;;;4.51;66.49
68301;BME280;55146;47.468;18.806;2023-03-19T05:41:06;100364.03;;;4.46;66.21
68301;BME280;55146;47.468;18.806;2023-03-19T05:43:32;100362.16;;;4.46;66.37
68301;BME280;55146;47.468;18.806;2023-03-19T05:45:58;100359.97;;;4.55;66.22
68301;BME280;55146;47.468;18.806;2023-03-19T05:48:24;100359.13;;;4.55;66.61
68301;BME280;55146;47.468;18.806;2023-03-19T05:50:50;100359.75;;;4.57;66.31
68301;BME280;55146;47.468;18.806;2023-03-19T05:53:17;100358.09;;;4.85;65.30
68301;BME280;55146;47.468;18.806;2023-03-19T05:55:43;100361.31;;;4.94;64.77
68301;BME280;55146;47.468;18.806;2023-03-19T05:58:08;100357.53;;;4.95;65.11
68301;BME280;55146;47.468;18.806;2023-03-19T06:00:34;100367.13;;;4.86;64.70
68301;BME280;55146;47.468;18.806;2023-03-19T06:02:59;100365.25;;;4.98;64.90
68301;BME280;55146;47.468;18.806;2023-03-19T06:05:25;100371.19;;;5.07;64.31
68301;BME280;55146;47.468;18.806;2023-03-19T06:07:50;100373.75;;;5.20;64.23
68301;BME280;55146;47.468;18.806;2023-03-19T06:10:16;100375.09;;;5.29;63.60
68301;BME280;55146;47.468;18.806;2023-03-19T06:12:41;100383.63;;;5.33;63.37
68301;BME280;55146;47.468;18.806;2023-03-19T06:15:07;100382.97;;;5.49;63.28
68301;BME280;55146;47.468;18.806;2023-03-19T06:17:33;100380.72;;;5.57;62.61
68301;BME280;55146;47.468;18.806;2023-03-19T06:19:59;100382.38;;;5.58;62.38
68301;BME280;55146;47.468;18.806;2023-03-19T06:22:24;100385.84;;;5.65;62.27
68301;BME280;55146;47.468;18.806;2023-03-19T06:24:51;100393.94;;;5.84;62.00
68301;BME280;55146;47.468;18.806;2023-03-19T06:27:17;100388.88;;;6.11;60.93
68301;BME280;55146;47.468;18.806;2023-03-19T06:29:42;100394.91;;;6.24;60.79
68301;BME280;55146;47.468;18.806;2023-03-19T06:32:08;100398.69;;;6.46;59.97
68301;BME280;55146;47.468;18.806;2023-03-19T06:34:34;100396.53;;;6.60;59.70
68301;BME280;55146;47.468;18.806;2023-03-19T06:36:59;100394.38;;;6.62;59.30
68301;BME280;55146;47.468;18.806;2023-03-19T06:39:24;100395.50;;;6.89;58.83
68301;BME280;55146;47.468;18.806;2023-03-19T06:41:50;100395.50;;;6.89;58.18
68301;BME280;55146;47.468;18.806;2023-03-19T06:44:16;100401.06;;;6.95;57.50
68301;BME280;55146;47.468;18.806;2023-03-19T06:46:41;100397.50;;;6.94;58.49
68301;BME280;55146;47.468;18.806;2023-03-19T06:49:06;100392.75;;;7.18;57.54
68301;BME280;55146;47.468;18.806;2023-03-19T06:51:32;100395.94;;;7.26;57.31
68301;BME280;55146;47.468;18.806;2023-03-19T06:53:57;100392.31;;;7.38;57.38
68301;BME280;55146;47.468;18.806;2023-03-19T06:56:23;100384.03;;;7.66;56.03
68301;BME280;55146;47.468;18.806;2023-03-19T06:58:48;100378.91;;;7.53;55.50
68301;BME280;55146;47.468;18.806;2023-03-19T07:01:13;100377.47;;;7.67;55.02
68301;BME280;55146;47.468;18.806;2023-03-19T07:03:39;100370.69;;;7.53;55.41
68301;BME280;55146;47.468;18.806;2023-03-19T07:06:04;100374.56;;;7.90;54.12
68301;BME280;55146;47.468;18.806;2023-03-19T07:08:31;100373.50;;;8.08;54.13
68301;BME280;55146;47.468;18.806;2023-03-19T07:11:02;100370.94;;;8.01;53.72
68301;BME280;55146;47.468;18.806;2023-03-19T07:13:28;100387.28;;;8.13;53.67
68301;BME280;55146;47.468;18.806;2023-03-19T07:15:53;100385.34;;;7.97;53.86
68301;BME280;55146;47.468;18.806;2023-03-19T07:18:18;100393.75;;;8.07;53.27
68301;BME280;55146;47.468;18.806;2023-03-19T07:20:44;100384.03;;;8.33;53.31
68301;BME280;55146;47.468;18.806;2023-03-19T07:23:10;100389.72;;;8.48;52.22
68301;BME280;55146;47.468;18.806;2023-03-19T07:25:35;100395.34;;;8.80;51.05
68301;BME280;55146;47.468;18.806;2023-03-19T07:28:01;100390.69;;;9.29;51.61
68301;BME280;55146;47.468;18.806;2023-03-19T07:30:26;100400.53;;;9.84;49.06
68301;BME280;55146;47.468;18.806;2023-03-19T07:32:51;100398.84;;;10.14;48.86
68301;BME280;55146;47.468;18.806;2023-03-19T07:35:17;100399.31;;;10.01;48.18
68301;BME280;55146;47.468;18.806;2023-03-19T07:37:42;100392.38;;;9.94;48.05
68301;BME280;55146;47.468;18.806;2023-03-19T07:40:09;100394.97;;;10.05;47.91
68301;BME280;55146;47.468;18.806;2023-03-19T07:42:34;100388.34;;;10.06;47.59
68301;BME280;55146;47.468;18.806;2023-03-19T07:45:01;100384.09;;;10.21;47.35
68301;BME280;55146;47.468;18.806;2023-03-19T07:47:28;100389.28;;;9.85;47.95
68301;BME280;55146;47.468;18.806;2023-03-19T07:49:53;100388.75;;;9.88;48.26
68301;BME280;55146;47.468;18.806;2023-03-19T07:52:18;100386.53;;;10.17;47.29
68301;BME280;55146;47.468;18.806;2023-03-19T07:54:44;100380.50;;;10.20;48.09
68301;BME280;55146;47.468;18.806;2023-03-19T07:57:10;100382.97;;;10.64;47.55
68301;BME280;55146;47.468;18.806;2023-03-19T07:59:35;100381.22;;;11.05;46.15
68301;BME280;55146;47.468;18.806;2023-03-19T08:02:00;100384.72;;;10.90;44.62
68301;BME280;55146;47.468;18.806;2023-03-19T08:04:26;100376.09;;;10.66;45.40
68301;BME280;55146;47.468;18.806;2023-03-19T08:06:51;100372.06;;;10.89;45.21
68301;BME280;55146;47.468;18.806;2023-03-19T08:09:17;100390.56;;;10.46;45.48
68301;BME280;55146;47.468;18.806;2023-03-19T08:11:43;100382.34;;;10.09;46.99
68301;BME280;55146;47.468;18.806;2023-03-19T08:14:08;100377.88;;;10.35;46.32
68301;BME280;55146;47.468;18.806;2023-03-19T08:16:33;100379.56;;;10.41;45.69
68301;BME280;55146;47.468;18.806;2023-03-19T08:18:59;100384.03;;;10.63;45.84
68301;BME280;55146;47.468;18.806;2023-03-19T08:21:24;100387.38;;;10.70;45.27
68301;BME280;55146;47.468;18.806;2023-03-19T08:23:51;100383.63;;;10.91;44.52
68301;BME280;55146;47.468;18.806;2023-03-19T08:26:17;100385.09;;;11.19;43.91
68301;BME280;55146;47.468;18.806;2023-03-19T08:28:42;100379.84;;;11.07;43.82
68301;BME280;55146;47.468;18.806;2023-03-19T08:31:12;100375.16;;;11.03;43.91
68301;BME280;55146;47.468;18.806;2023-03-19T08:33:38;100380.16;;;11.21;43.06
68301;BME280;55146;47.468;18.806;2023-03-19T08:36:09;100383.22;;;11.34;43.65
68301;BME280;55146;47.468;18.806;2023-03-19T08:38:35;100371.41;;;11.64;43.19
68301;BME280;55146;47.468;18.806;2023-03-19T08:41:00;100375.59;;;11.77;42.90
68301;BME280;55146;47.468;18.806;2023-03-19T08:43:29;100360.94;;;11.71;42.65
68301;BME280;55146;47.468;18.806;2023-03-19T08:45:54;100359.81;;;11.52;42.04
68301;BME280;55146;47.468;18.806;2023-03-19T08:48:20;100361.78;;;11.72;41.94
68301;BME280;55146;47.468;18.806;2023-03-19T08:50:53;100355.41;;;11.41;42.87
68301;BME280;55146;47.468;18.806;2023-03-19T08:53:20;100356.00;;;11.94;42.16
68301;BME280;55146;47.468;18.806;2023-03-19T08:55:50;100359.00;;;12.28;42.02
68301;BME280;55146;47.468;18.806;2023-03-19T08:58:16;100366.28;;;12.73;40.79
68301;BME280;55146;47.468;18.806;2023-03-19T09:00:41;100363.75;;;12.86;39.63
68301;BME280;55146;47.468;18.806;2023-03-19T09:03:07;100370.03;;;12.97;40.39
68301;BME280;55146;47.468;18.806;2023-03-19T09:05:32;100363.50;;;12.78;40.63
68301;BME280;55146;47.468;18.806;2023-03-19T09:07:57;100350.97;;;13.06;39.80
68301;BME280;55146;47.468;18.806;2023-03-19T09:10:23;100360.19;;;13.35;38.90
68301;BME280;55146;47.468;18.806;2023-03-19T09:12:48;100360.28;;;13.64;38.72
68301;BME280;55146;47.468;18.806;2023-03-19T09:15:13;100355.22;;;13.37;38.63
68301;BME280;55146;47.468;18.806;2023-03-19T09:17:39;100349.47;;;13.28;38.68
68301;BME280;55146;47.468;18.806;2023-03-19T09:20:05;100344.16;;;13.37;38.17
68301;BME280;55146;47.468;18.806;2023-03-19T09:22:31;100334.53;;;13.29;38.91
68301;BME280;55146;47.468;18.806;2023-03-19T09:24:57;100335.44;;;13.93;37.96
68301;BME280;55146;47.468;18.806;2023-03-19T09:27:23;100335.31;;;13.74;37.34
68301;BME280;55146;47.468;18.806;2023-03-19T09:29:48;100333.00;;;13.52;38.02
68301;BME280;55146;47.468;18.806;2023-03-19T09:32:13;100337.69;;;13.03;38.86
68301;BME280;55146;47.468;18.806;2023-03-19T09:34:39;100342.69;;;13.50;38.31
68301;BME280;55146;47.468;18.806;2023-03-19T09:37:05;100329.16;;;13.48;38.50
68301;BME280;55146;47.468;18.806;2023-03-19T09:39:30;100329.06;;;13.58;38.55
68301;BME280;55146;47.468;18.806;2023-03-19T09:44:47;100319.81;;;14.07;36.14
68301;BME280;55146;47.468;18.806;2023-03-19T09:47:32;100317.47;;;14.19;36.79
68301;BME280;55146;47.468;18.806;2023-03-19T09:50:19;100321.44;;;14.08;37.08
68301;BME280;55146;47.468;18.806;2023-03-19T09:53:00;100335.53;;;14.11;36.14
68301;BME280;55146;47.468;18.806;2023-03-19T09:55:43;100329.19;;;13.77;36.80
68301;BME280;55146;47.468;18.806;2023-03-19T09:58:30;100326.59;;;13.91;37.36
68301;BME280;55146;47.468;18.806;2023-03-19T10:00:57;100318.41;;;14.62;36.47
68301;BME280;55146;47.468;18.806;2023-03-19T10:03:45;100327.22;;;14.64;35.86
68301;BME280;55146;47.468;18.806;2023-03-19T10:06:33;100317.00;;;14.83;35.88
68301;BME280;55146;47.468;18.806;2023-03-19T10:12:25;100321.94;;;14.44;35.58
68301;BME280;55146;47.468;18.806;2023-03-19T10:17:55;100321.59;;;14.69;35.04
68301;BME280;55146;47.468;18.806;2023-03-19T10:22:50;100301.56;;;14.30;35.87
68301;BME280;55146;47.468;18.806;2023-03-19T10:25:25;100306.75;;;14.84;35.97
68301;BME280;55146;47.468;18.806;2023-03-19T10:27:59;100298.69;;;14.64;35.27
68301;BME280;55146;47.468;18.806;2023-03-19T10:30:31;100300.66;;;14.39;35.96
68301;BME280;55146;47.468;18.806;2023-03-19T10:33:16;100300.63;;;14.15;35.40
68301;BME280;55146;47.468;18.806;2023-03-19T10:35:48;100304.66;;;13.99;36.12
68301;BME280;55146;47.468;18.806;2023-03-19T10:38:21;100293.00;;;14.31;36.69
68301;BME280;55146;47.468;18.806;2023-03-19T10:41:04;100284.44;;;14.51;36.00
68301;BME280;55146;47.468;18.806;2023-03-19T10:43:35;100276.66;;;14.30;35.44
68301;BME280;55146;47.468;18.806;2023-03-19T10:46:01;100280.34;;;14.49;35.40
68301;BME280;55146;47.468;18.806;2023-03-19T10:48:27;100285.63;;;14.88;35.65
68301;BME280;55146;47.468;18.806;2023-03-19T10:50:58;100277.91;;;14.66;35.03
68301;BME280;55146;47.468;18.806;2023-03-19T10:53:29;100273.78;;;15.38;35.26
68301;BME280;55146;47.468;18.806;2023-03-19T10:56:00;100284.78;;;15.95;33.78
68301;BME280;55146;47.468;18.806;2023-03-19T10:58:28;100277.47;;;15.34;34.14
68301;BME280;55146;47.468;18.806;2023-03-19T11:00:58;100268.88;;;15.68;33.99
68301;BME280;55146;47.468;18.806;2023-03-19T11:03:33;100265.66;;;15.93;33.51
68301;BME280;55146;47.468;18.806;2023-03-19T11:06:27;100257.75;;;16.00;33.86
68301;BME280;55146;47.468;18.806;2023-03-19T11:08:56;100253.87;;;16.15;33.45
68301;BME280;55146;47.468;18.806;2023-03-19T11:11:35;100246.84;;;15.90;33.33
68301;BME280;55146;47.468;18.806;2023-03-19T11:14:09;100248.19;;;15.93;33.20
68301;BME280;55146;47.468;18.806;2023-03-19T11:19:40;100240.59;;;16.26;33.47
68301;BME280;55146;47.468;18.806;2023-03-19T11:22:07;100243.06;;;16.00;32.85
68301;BME280;55146;47.468;18.806;2023-03-19T11:24:39;100240.00;;;16.29;32.79
68301;BME280;55146;47.468;18.806;2023-03-19T11:27:06;100229.44;;;15.38;33.28
68301;BME280;55146;47.468;18.806;2023-03-19T11:29:36;100233.09;;;15.85;33.10
68301;BME280;55146;47.468;18.806;2023-03-19T11:35:02;100230.72;;;15.78;33.31
68301;BME280;55146;47.468;18.806;2023-03-19T11:37:53;100226.00;;;16.06;32.70
68301;BME280;55146;47.468;18.806;2023-03-19T11:46:01;100220.59;;;15.55;33.16
68301;BME280;55146;47.468;18.806;2023-03-19T11:51:28;100208.22;;;16.35;33.62
68301;BME280;55146;47.468;18.806;2023-03-19T11:54:25;100204.41;;;16.94;34.14
68301;BME280;55146;47.468;18.806;2023-03-19T11:57:03;100196.41;;;16.79;32.05
68301;BME280;55146;47.468;18.806;2023-03-19T12:15:36;100171.47;;;16.51;32.01
68301;BME280;55146;47.468;18.806;2023-03-19T12:26:43;100161.41;;;17.14;30.59
68301;BME280;55146;47.468;18.806;2023-03-19T12:32:15;100151.38;;;16.54;31.06
68301;BME280;55146;47.468;18.806;2023-03-19T12:34:54;100161.31;;;16.33;32.22
68301;BME280;55146;47.468;18.806;2023-03-19T12:37:35;100141.03;;;16.60;31.51
68301;BME280;55146;47.468;18.806;2023-03-19T12:42:38;100136.31;;;16.47;32.37
68301;BME280;55146;47.468;18.806;2023-03-19T12:45:28;100128.91;;;16.42;32.52
68301;BME280;55146;47.468;18.806;2023-03-19T12:48:29;100131.50;;;16.39;33.17
68301;BME280;55146;47.468;18.806;2023-03-19T12:51:03;100117.41;;;16.85;32.04
68301;BME280;55146;47.468;18.806;2023-03-19T12:56:47;100114.16;;;17.14;31.62
68301;BME280;55146;47.468;18.806;2023-03-19T12:59:29;100108.16;;;16.76;31.07
68301;BME280;55146;47.468;18.806;2023-03-19T13:04:56;100111.41;;;16.42;32.38
68301;BME280;55146;47.468;18.806;2023-03-19T13:07:31;100113.91;;;16.30;32.48
68301;BME280;55146;47.468;18.806;2023-03-19T13:10:18;100111.44;;;15.92;32.13
68301;BME280;55146;47.468;18.806;2023-03-19T13:12:45;100108.84;;;15.82;32.57
68301;BME280;55146;47.468;18.806;2023-03-19T13:15:23;100105.25;;;15.82;33.06
68301;BME280;55146;47.468;18.806;2023-03-19T13:20:55;100104.09;;;15.42;33.71
68301;BME280;55146;47.468;18.806;2023-03-19T13:23:33;100098.13;;;15.34;34.71
68301;BME280;55146;47.468;18.806;2023-03-19T13:26:00;100096.50;;;15.47;34.59
68301;BME280;55146;47.468;18.806;2023-03-19T13:28:30;100093.81;;;15.42;34.38
68301;BME280;55146;47.468;18.806;2023-03-19T13:31:02;100092.66;;;15.43;34.63
68301;BME280;55146;47.468;18.806;2023-03-19T13:33:29;100091.72;;;15.20;34.79
68301;BME280;55146;47.468;18.806;2023-03-19T13:35:56;100083.94;;;15.22;35.11
68301;BME280;55146;47.468;18.806;2023-03-19T13:38:26;100087.09;;;15.16;35.57
68301;BME280;55146;47.468;18.806;2023-03-19T13:40:56;100076.84;;;15.16;35.53
68301;BME280;55146;47.468;18.806;2023-03-19T13:54:04;100075.88;;;15.07;36.33
68301;BME280;55146;47.468;18.806;2023-03-19T13:57:03;100075.81;;;15.26;35.90
68301;BME280;55146;47.468;18.806;2023-03-19T14:01:58;100062.50;;;15.69;35.88
68301;BME280;55146;47.468;18.806;2023-03-19T14:04:27;100051.00;;;15.89;34.58
68301;BME280;55146;47.468;18.806;2023-03-19T14:06:57;100058.25;;;15.99;34.31
68301;BME280;55146;47.468;18.806;2023-03-19T14:09:40;100061.44;;;16.06;34.08
68301;BME280;55146;47.468;18.806;2023-03-19T14:15:01;100066.34;;;15.59;34.50